Terminal Aerodrome Forecast
Issued by NWS

Home | Current Version | Previous Version | Graphics & Text | Print | Product List | Glossary On
Versions: 1 2 3 4 5 6 7 8 9 10 11 12 13 14
000
FTUS43 KUNR 251100
TAFGCC
TAF
KGCC 251127Z 2512/2612 33007KT P6SM BKN012
      TEMPO 2512/2514 BKN008
     FM251500 33008KT P6SM BKN020
     FM251800 33010KT P6SM BKN040
     FM260200 23006KT P6SM SCT040=

USA.gov is the U.S. government's official web portal to all federal, state and local government web resources and services.